This is the latest recevied weather packets stored in our database for station/object TA2CAY. If no packets are shown the sender has not sent any weather packets the latest 1 day(s).
| Time | Temp. | Humidity | Pressure | Rain* | Wind** | Luminosity | Snow |
|---|---|---|---|---|---|---|---|
| 1777883185 | 16.67° C | 68% | 1019.1 hPa | - | - | - | - |
| 1777881384 | 16.11° C | 69% | 1018.8 hPa | - | - | - | - |
| 1777879584 | 17.22° C | 65% | 1018 hPa | - | - | - | - |
| 1777877783 | 15.56° C | 73% | 1018.9 hPa | - | - | - | - |
| 1777875982 | 15.56° C | 72% | 1018.7 hPa | - | - | - | - |
| 1777874181 | 15° C | 75% | 1018.7 hPa | - | - | - | - |
| 1777872380 | 14.44° C | 77% | 1018.5 hPa | - | - | - | - |
| 1777870579 | 15° C | 75% | 1018.3 hPa | - | - | - | - |
| 1777868777 | 13.89° C | 80% | 1018.1 hPa | - | - | - | - |
| 1777866977 | 14.44° C | 78% | 1017.9 hPa | - | - | - | - |
| 1777865176 | 13.89° C | 81% | 1017.8 hPa | - | - | - | - |
| 1777863375 | 13.89° C | 80% | 1017.5 hPa | - | - | - | - |
| 1777861574 | 13.89° C | 80% | 1017.3 hPa | - | - | - | - |
| 1777859773 | 13.89° C | 79% | 1017.2 hPa | - | - | - | - |
| 1777856171 | 13.89° C | 79% | 1017.2 hPa | - | - | - | - |
| 1777854371 | 14.44° C | 74% | 1017.2 hPa | - | - | - | - |
| 1777852570 | 13.89° C | 77% | 1017.4 hPa | - | - | - | - |
| 1777850769 | 14.44° C | 74% | 1017.5 hPa | - | - | - | - |
| 1777848968 | 14.44° C | 75% | 1017.5 hPa | - | - | - | - |
| 1777847167 | 14.44° C | 75% | 1017.6 hPa | - | - | - | - |
| 1777845366 | 15° C | 73% | 1017.8 hPa | - | - | - | - |
| 1777843565 | 13.89° C | 75% | 1018.1 hPa | - | - | - | - |
* Rain since midnight (hover to see other rain measurements)
** Current wind speed in m/s (hover to see current wind gust speed)